sensor_id;sensor_type;location;lat;lon;timestamp;P1;durP1;ratioP1;P2;durP2;ratioP2
21721;SDS011;11023;48.274;7.794;2022-07-23T00:00:52;10.32;;;7.28;;
21721;SDS011;11023;48.274;7.794;2022-07-23T00:03:18;8.63;;;7.10;;
21721;SDS011;11023;48.274;7.794;2022-07-23T00:05:43;8.40;;;6.85;;
21721;SDS011;11023;48.274;7.794;2022-07-23T00:08:09;11.27;;;7.07;;
21721;SDS011;11023;48.274;7.794;2022-07-23T00:10:35;9.77;;;7.55;;
21721;SDS011;11023;48.274;7.794;2022-07-23T00:13:00;8.25;;;7.15;;
21721;SDS011;11023;48.274;7.794;2022-07-23T00:15:26;9.23;;;7.50;;
21721;SDS011;11023;48.274;7.794;2022-07-23T00:17:52;12.57;;;7.90;;
21721;SDS011;11023;48.274;7.794;2022-07-23T00:20:17;9.35;;;7.03;;
21721;SDS011;11023;48.274;7.794;2022-07-23T00:22:47;10.25;;;7.57;;
21721;SDS011;11023;48.274;7.794;2022-07-23T00:25:13;11.27;;;7.43;;
21721;SDS011;11023;48.274;7.794;2022-07-23T00:27:39;10.25;;;7.60;;
21721;SDS011;11023;48.274;7.794;2022-07-23T00:30:05;9.18;;;7.75;;
21721;SDS011;11023;48.274;7.794;2022-07-23T00:32:31;9.35;;;8.07;;
21721;SDS011;11023;48.274;7.794;2022-07-23T00:34:57;12.02;;;7.80;;
21721;SDS011;11023;48.274;7.794;2022-07-23T00:37:22;8.00;;;7.20;;
21721;SDS011;11023;48.274;7.794;2022-07-23T00:39:48;10.10;;;8.07;;
21721;SDS011;11023;48.274;7.794;2022-07-23T00:42:13;11.68;;;7.53;;
21721;SDS011;11023;48.274;7.794;2022-07-23T00:44:39;10.48;;;8.00;;
21721;SDS011;11023;48.274;7.794;2022-07-23T00:47:06;8.43;;;7.57;;
21721;SDS011;11023;48.274;7.794;2022-07-23T00:49:32;9.52;;;7.60;;
21721;SDS011;11023;48.274;7.794;2022-07-23T00:51:57;10.15;;;8.93;;
21721;SDS011;11023;48.274;7.794;2022-07-23T00:54:27;11.98;;;8.68;;
21721;SDS011;11023;48.274;7.794;2022-07-23T00:56:52;9.65;;;7.93;;
21721;SDS011;11023;48.274;7.794;2022-07-23T00:59:18;9.73;;;8.50;;
21721;SDS011;11023;48.274;7.794;2022-07-23T01:01:44;12.32;;;8.52;;
21721;SDS011;11023;48.274;7.794;2022-07-23T01:04:12;9.15;;;7.53;;
21721;SDS011;11023;48.274;7.794;2022-07-23T01:06:40;11.80;;;8.15;;
21721;SDS011;11023;48.274;7.794;2022-07-23T01:09:07;8.65;;;7.72;;
21721;SDS011;11023;48.274;7.794;2022-07-23T01:11:34;8.60;;;7.68;;
21721;SDS011;11023;48.274;7.794;2022-07-23T01:14:14;8.98;;;7.72;;
21721;SDS011;11023;48.274;7.794;2022-07-23T01:16:43;9.98;;;7.85;;
21721;SDS011;11023;48.274;7.794;2022-07-23T01:19:09;8.15;;;7.32;;
21721;SDS011;11023;48.274;7.794;2022-07-23T01:21:36;8.95;;;8.05;;
21721;SDS011;11023;48.274;7.794;2022-07-23T01:24:06;9.27;;;7.93;;
21721;SDS011;11023;48.274;7.794;2022-07-23T01:26:33;10.05;;;8.50;;
21721;SDS011;11023;48.274;7.794;2022-07-23T01:28:59;8.70;;;7.80;;
21721;SDS011;11023;48.274;7.794;2022-07-23T01:31:25;8.82;;;7.93;;
21721;SDS011;11023;48.274;7.794;2022-07-23T01:33:51;7.82;;;7.03;;
21721;SDS011;11023;48.274;7.794;2022-07-23T01:36:17;8.40;;;7.57;;
21721;SDS011;11023;48.274;7.794;2022-07-23T01:38:42;9.38;;;7.78;;
21721;SDS011;11023;48.274;7.794;2022-07-23T01:41:08;8.60;;;7.65;;
21721;SDS011;11023;48.274;7.794;2022-07-23T01:43:34;10.25;;;8.05;;
21721;SDS011;11023;48.274;7.794;2022-07-23T01:45:59;8.05;;;7.25;;
21721;SDS011;11023;48.274;7.794;2022-07-23T01:48:25;12.05;;;8.05;;
21721;SDS011;11023;48.274;7.794;2022-07-23T01:50:51;9.10;;;7.57;;
21721;SDS011;11023;48.274;7.794;2022-07-23T01:53:16;8.80;;;7.90;;
21721;SDS011;11023;48.274;7.794;2022-07-23T01:55:42;9.32;;;8.07;;
21721;SDS011;11023;48.274;7.794;2022-07-23T01:58:08;8.82;;;7.90;;
21721;SDS011;11023;48.274;7.794;2022-07-23T02:00:34;9.25;;;7.70;;
21721;SDS011;11023;48.274;7.794;2022-07-23T02:03:00;8.90;;;7.95;;
21721;SDS011;11023;48.274;7.794;2022-07-23T02:05:26;9.85;;;7.85;;
21721;SDS011;11023;48.274;7.794;2022-07-23T02:07:54;8.98;;;7.35;;
21721;SDS011;11023;48.274;7.794;2022-07-23T02:10:20;8.57;;;7.47;;
21721;SDS011;11023;48.274;7.794;2022-07-23T02:12:46;9.43;;;8.48;;
21721;SDS011;11023;48.274;7.794;2022-07-23T02:15:11;10.40;;;8.57;;
21721;SDS011;11023;48.274;7.794;2022-07-23T02:17:37;10.43;;;9.23;;
21721;SDS011;11023;48.274;7.794;2022-07-23T02:20:03;11.38;;;9.63;;
21721;SDS011;11023;48.274;7.794;2022-07-23T02:22:30;10.85;;;9.13;;
21721;SDS011;11023;48.274;7.794;2022-07-23T02:24:55;10.90;;;8.50;;
21721;SDS011;11023;48.274;7.794;2022-07-23T02:27:21;9.68;;;8.73;;
21721;SDS011;11023;48.274;7.794;2022-07-23T02:29:48;10.45;;;8.80;;
21721;SDS011;11023;48.274;7.794;2022-07-23T02:32:13;9.40;;;8.40;;
21721;SDS011;11023;48.274;7.794;2022-07-23T02:34:39;9.73;;;8.70;;
21721;SDS011;11023;48.274;7.794;2022-07-23T02:37:05;11.95;;;9.00;;
21721;SDS011;11023;48.274;7.794;2022-07-23T02:39:30;9.52;;;8.57;;
21721;SDS011;11023;48.274;7.794;2022-07-23T02:41:56;9.98;;;8.98;;
21721;SDS011;11023;48.274;7.794;2022-07-23T02:44:22;10.48;;;9.40;;
21721;SDS011;11023;48.274;7.794;2022-07-23T02:46:47;9.95;;;8.95;;
21721;SDS011;11023;48.274;7.794;2022-07-23T02:49:13;9.57;;;8.52;;
21721;SDS011;11023;48.274;7.794;2022-07-23T02:51:39;10.10;;;8.45;;
21721;SDS011;11023;48.274;7.794;2022-07-23T02:54:04;9.15;;;8.20;;
21721;SDS011;11023;48.274;7.794;2022-07-23T02:56:30;10.48;;;8.35;;
21721;SDS011;11023;48.274;7.794;2022-07-23T02:58:56;9.73;;;8.75;;
21721;SDS011;11023;48.274;7.794;2022-07-23T03:01:22;10.32;;;8.40;;
21721;SDS011;11023;48.274;7.794;2022-07-23T03:03:48;9.48;;;8.52;;
21721;SDS011;11023;48.274;7.794;2022-07-23T03:06:13;9.35;;;8.35;;
21721;SDS011;11023;48.274;7.794;2022-07-23T03:08:39;9.80;;;8.80;;
21721;SDS011;11023;48.274;7.794;2022-07-23T03:11:05;9.27;;;8.25;;
21721;SDS011;11023;48.274;7.794;2022-07-23T03:13:35;11.90;;;8.93;;
21721;SDS011;11023;48.274;7.794;2022-07-23T03:16:02;10.20;;;9.18;;
21721;SDS011;11023;48.274;7.794;2022-07-23T03:18:28;10.80;;;8.32;;
21721;SDS011;11023;48.274;7.794;2022-07-23T03:20:54;11.13;;;8.55;;
21721;SDS011;11023;48.274;7.794;2022-07-23T03:23:19;9.52;;;8.55;;
21721;SDS011;11023;48.274;7.794;2022-07-23T03:25:45;11.13;;;8.50;;
21721;SDS011;11023;48.274;7.794;2022-07-23T03:28:13;9.35;;;8.35;;
21721;SDS011;11023;48.274;7.794;2022-07-23T03:30:43;12.13;;;8.52;;
21721;SDS011;11023;48.274;7.794;2022-07-23T03:33:12;10.73;;;8.82;;
21721;SDS011;11023;48.274;7.794;2022-07-23T03:35:41;9.10;;;8.20;;
21721;SDS011;11023;48.274;7.794;2022-07-23T03:38:08;9.68;;;8.35;;
21721;SDS011;11023;48.274;7.794;2022-07-23T03:40:34;9.80;;;8.02;;
21721;SDS011;11023;48.274;7.794;2022-07-23T03:42:59;10.73;;;8.48;;
21721;SDS011;11023;48.274;7.794;2022-07-23T03:45:25;9.40;;;8.50;;
21721;SDS011;11023;48.274;7.794;2022-07-23T03:47:51;8.68;;;7.75;;
21721;SDS011;11023;48.274;7.794;2022-07-23T03:50:17;8.98;;;8.05;;
21721;SDS011;11023;48.274;7.794;2022-07-23T03:52:43;10.98;;;8.93;;
21721;SDS011;11023;48.274;7.794;2022-07-23T03:55:08;9.90;;;8.20;;
21721;SDS011;11023;48.274;7.794;2022-07-23T03:57:34;9.65;;;7.90;;
21721;SDS011;11023;48.274;7.794;2022-07-23T04:00:00;9.63;;;8.60;;
21721;SDS011;11023;48.274;7.794;2022-07-23T04:02:26;11.60;;;8.50;;
21721;SDS011;11023;48.274;7.794;2022-07-23T04:04:51;9.20;;;8.10;;
21721;SDS011;11023;48.274;7.794;2022-07-23T04:07:17;9.40;;;8.38;;
21721;SDS011;11023;48.274;7.794;2022-07-23T04:09:43;9.45;;;8.10;;
21721;SDS011;11023;48.274;7.794;2022-07-23T04:12:09;9.02;;;8.13;;
21721;SDS011;11023;48.274;7.794;2022-07-23T04:14:35;8.93;;;8.02;;
21721;SDS011;11023;48.274;7.794;2022-07-23T04:17:01;9.77;;;7.95;;
21721;SDS011;11023;48.274;7.794;2022-07-23T04:19:27;10.40;;;8.15;;
21721;SDS011;11023;48.274;7.794;2022-07-23T04:21:52;9.50;;;8.25;;
21721;SDS011;11023;48.274;7.794;2022-07-23T04:24:18;8.45;;;7.57;;
21721;SDS011;11023;48.274;7.794;2022-07-23T04:26:44;9.43;;;8.50;;
21721;SDS011;11023;48.274;7.794;2022-07-23T04:29:10;8.80;;;7.90;;
21721;SDS011;11023;48.274;7.794;2022-07-23T04:31:36;8.98;;;8.07;;
21721;SDS011;11023;48.274;7.794;2022-07-23T04:34:02;8.75;;;7.70;;
21721;SDS011;11023;48.274;7.794;2022-07-23T04:36:28;9.90;;;7.47;;
21721;SDS011;11023;48.274;7.794;2022-07-23T04:38:54;11.40;;;9.43;;
21721;SDS011;11023;48.274;7.794;2022-07-23T04:41:20;11.18;;;9.80;;
21721;SDS011;11023;48.274;7.794;2022-07-23T04:43:45;10.60;;;9.50;;
21721;SDS011;11023;48.274;7.794;2022-07-23T04:46:11;10.52;;;9.52;;
21721;SDS011;11023;48.274;7.794;2022-07-23T04:48:37;15.82;;;10.63;;
21721;SDS011;11023;48.274;7.794;2022-07-23T04:51:03;14.35;;;9.95;;
21721;SDS011;11023;48.274;7.794;2022-07-23T04:53:29;17.33;;;10.88;;
21721;SDS011;11023;48.274;7.794;2022-07-23T04:55:54;11.68;;;10.48;;
21721;SDS011;11023;48.274;7.794;2022-07-23T04:58:20;10.98;;;9.85;;
21721;SDS011;11023;48.274;7.794;2022-07-23T05:00:46;13.50;;;10.80;;
21721;SDS011;11023;48.274;7.794;2022-07-23T05:03:12;12.70;;;10.50;;
21721;SDS011;11023;48.274;7.794;2022-07-23T05:05:38;12.18;;;9.57;;
21721;SDS011;11023;48.274;7.794;2022-07-23T05:08:04;13.35;;;9.82;;
21721;SDS011;11023;48.274;7.794;2022-07-23T05:10:30;11.23;;;9.30;;
21721;SDS011;11023;48.274;7.794;2022-07-23T05:12:55;9.95;;;8.95;;
21721;SDS011;11023;48.274;7.794;2022-07-23T05:15:21;10.82;;;9.00;;
21721;SDS011;11023;48.274;7.794;2022-07-23T05:17:47;11.48;;;10.00;;
21721;SDS011;11023;48.274;7.794;2022-07-23T05:20:13;11.70;;;10.50;;
21721;SDS011;11023;48.274;7.794;2022-07-23T05:22:39;11.63;;;9.13;;
21721;SDS011;11023;48.274;7.794;2022-07-23T05:25:05;8.95;;;8.00;;
21721;SDS011;11023;48.274;7.794;2022-07-23T05:27:31;8.07;;;7.28;;
21721;SDS011;11023;48.274;7.794;2022-07-23T05:29:56;8.50;;;7.60;;
21721;SDS011;11023;48.274;7.794;2022-07-23T05:32:22;9.95;;;7.97;;
21721;SDS011;11023;48.274;7.794;2022-07-23T05:34:48;9.50;;;8.50;;
21721;SDS011;11023;48.274;7.794;2022-07-23T05:37:15;10.82;;;9.63;;
21721;SDS011;11023;48.274;7.794;2022-07-23T05:39:41;13.18;;;11.00;;
21721;SDS011;11023;48.274;7.794;2022-07-23T05:42:06;11.45;;;10.02;;
21721;SDS011;11023;48.274;7.794;2022-07-23T05:44:32;12.25;;;10.95;;
21721;SDS011;11023;48.274;7.794;2022-07-23T05:46:58;12.85;;;10.38;;
21721;SDS011;11023;48.274;7.794;2022-07-23T05:49:24;13.85;;;10.85;;
21721;SDS011;11023;48.274;7.794;2022-07-23T05:51:50;14.50;;;10.73;;
21721;SDS011;11023;48.274;7.794;2022-07-23T05:54:15;12.27;;;10.35;;
21721;SDS011;11023;48.274;7.794;2022-07-23T05:56:41;14.05;;;11.15;;
21721;SDS011;11023;48.274;7.794;2022-07-23T05:59:07;14.68;;;10.95;;
21721;SDS011;11023;48.274;7.794;2022-07-23T06:01:33;13.02;;;11.73;;
21721;SDS011;11023;48.274;7.794;2022-07-23T06:03:59;15.35;;;11.57;;
21721;SDS011;11023;48.274;7.794;2022-07-23T06:06:24;12.45;;;11.13;;
21721;SDS011;11023;48.274;7.794;2022-07-23T06:08:50;12.77;;;11.05;;
21721;SDS011;11023;48.274;7.794;2022-07-23T06:11:15;15.05;;;11.82;;
21721;SDS011;11023;48.274;7.794;2022-07-23T06:13:41;14.82;;;11.55;;
21721;SDS011;11023;48.274;7.794;2022-07-23T06:16:07;15.32;;;11.18;;
21721;SDS011;11023;48.274;7.794;2022-07-23T06:18:32;12.23;;;10.80;;
21721;SDS011;11023;48.274;7.794;2022-07-23T06:20:58;13.57;;;11.25;;
21721;SDS011;11023;48.274;7.794;2022-07-23T06:23:24;14.23;;;9.63;;
21721;SDS011;11023;48.274;7.794;2022-07-23T06:25:49;14.73;;;10.30;;
21721;SDS011;11023;48.274;7.794;2022-07-23T06:28:15;11.48;;;8.98;;
21721;SDS011;11023;48.274;7.794;2022-07-23T06:30:41;11.63;;;9.45;;
21721;SDS011;11023;48.274;7.794;2022-07-23T06:33:07;10.70;;;9.60;;
21721;SDS011;11023;48.274;7.794;2022-07-23T06:35:32;11.18;;;9.98;;
21721;SDS011;11023;48.274;7.794;2022-07-23T06:37:58;10.32;;;8.85;;
21721;SDS011;11023;48.274;7.794;2022-07-23T06:40:24;14.80;;;8.95;;
21721;SDS011;11023;48.274;7.794;2022-07-23T06:42:50;10.40;;;9.20;;
21721;SDS011;11023;48.274;7.794;2022-07-23T06:45:16;12.07;;;10.35;;
21721;SDS011;11023;48.274;7.794;2022-07-23T06:47:44;10.85;;;9.27;;
21721;SDS011;11023;48.274;7.794;2022-07-23T06:50:10;10.65;;;8.65;;
21721;SDS011;11023;48.274;7.794;2022-07-23T06:52:35;11.20;;;9.15;;
21721;SDS011;11023;48.274;7.794;2022-07-23T06:55:01;9.32;;;8.43;;
21721;SDS011;11023;48.274;7.794;2022-07-23T06:57:27;8.70;;;7.88;;
21721;SDS011;11023;48.274;7.794;2022-07-23T06:59:53;9.48;;;8.50;;
21721;SDS011;11023;48.274;7.794;2022-07-23T07:02:18;11.63;;;8.07;;
21721;SDS011;11023;48.274;7.794;2022-07-23T07:04:44;10.88;;;8.35;;
21721;SDS011;11023;48.274;7.794;2022-07-23T07:07:10;9.32;;;8.38;;
21721;SDS011;11023;48.274;7.794;2022-07-23T07:09:37;10.38;;;7.88;;
21721;SDS011;11023;48.274;7.794;2022-07-23T07:12:03;9.88;;;7.40;;
21721;SDS011;11023;48.274;7.794;2022-07-23T07:14:29;12.50;;;8.68;;
21721;SDS011;11023;48.274;7.794;2022-07-23T07:16:54;9.63;;;7.63;;
21721;SDS011;11023;48.274;7.794;2022-07-23T07:19:20;8.73;;;7.53;;
21721;SDS011;11023;48.274;7.794;2022-07-23T07:21:46;9.75;;;7.75;;
21721;SDS011;11023;48.274;7.794;2022-07-23T07:24:11;8.30;;;7.50;;
21721;SDS011;11023;48.274;7.794;2022-07-23T07:26:37;8.75;;;7.82;;
21721;SDS011;11023;48.274;7.794;2022-07-23T07:29:04;8.65;;;7.57;;
21721;SDS011;11023;48.274;7.794;2022-07-23T07:31:30;8.98;;;8.00;;
21721;SDS011;11023;48.274;7.794;2022-07-23T07:33:56;7.75;;;7.00;;
21721;SDS011;11023;48.274;7.794;2022-07-23T07:36:22;9.40;;;7.72;;
21721;SDS011;11023;48.274;7.794;2022-07-23T07:38:48;8.95;;;8.00;;
21721;SDS011;11023;48.274;7.794;2022-07-23T07:41:14;9.88;;;8.02;;
21721;SDS011;11023;48.274;7.794;2022-07-23T07:43:40;10.27;;;8.50;;
21721;SDS011;11023;48.274;7.794;2022-07-23T07:46:06;9.20;;;8.27;;
21721;SDS011;11023;48.274;7.794;2022-07-23T07:48:35;9.15;;;7.55;;
21721;SDS011;11023;48.274;7.794;2022-07-23T07:51:04;8.48;;;7.45;;
21721;SDS011;11023;48.274;7.794;2022-07-23T07:53:30;7.93;;;7.20;;
21721;SDS011;11023;48.274;7.794;2022-07-23T07:55:55;8.68;;;7.72;;
21721;SDS011;11023;48.274;7.794;2022-07-23T07:58:21;8.68;;;7.25;;
21721;SDS011;11023;48.274;7.794;2022-07-23T08:00:47;9.55;;;7.07;;
21721;SDS011;11023;48.274;7.794;2022-07-23T08:03:12;9.25;;;7.63;;
21721;SDS011;11023;48.274;7.794;2022-07-23T08:05:39;10.68;;;7.40;;
21721;SDS011;11023;48.274;7.794;2022-07-23T08:08:04;9.38;;;7.40;;
21721;SDS011;11023;48.274;7.794;2022-07-23T08:10:30;8.93;;;7.53;;
21721;SDS011;11023;48.274;7.794;2022-07-23T08:12:57;9.30;;;6.63;;
21721;SDS011;11023;48.274;7.794;2022-07-23T08:15:24;8.18;;;7.32;;
21721;SDS011;11023;48.274;7.794;2022-07-23T08:17:51;6.90;;;6.30;;
21721;SDS011;11023;48.274;7.794;2022-07-23T08:20:19;7.63;;;6.70;;
21721;SDS011;11023;48.274;7.794;2022-07-23T08:22:51;7.30;;;6.60;;
21721;SDS011;11023;48.274;7.794;2022-07-23T08:25:22;7.28;;;6.25;;
21721;SDS011;11023;48.274;7.794;2022-07-23T08:27:50;7.75;;;6.25;;
21721;SDS011;11023;48.274;7.794;2022-07-23T08:30:17;7.63;;;6.72;;
21721;SDS011;11023;48.274;7.794;2022-07-23T08:33:03;6.60;;;6.00;;
21721;SDS011;11023;48.274;7.794;2022-07-23T08:35:33;7.18;;;6.28;;
21721;SDS011;11023;48.274;7.794;2022-07-23T08:38:01;7.30;;;6.05;;
21721;SDS011;11023;48.274;7.794;2022-07-23T08:40:30;8.98;;;6.82;;
21721;SDS011;11023;48.274;7.794;2022-07-23T08:42:57;7.85;;;7.05;;
21721;SDS011;11023;48.274;7.794;2022-07-23T08:45:25;7.35;;;6.32;;
21721;SDS011;11023;48.274;7.794;2022-07-23T08:47:54;7.00;;;6.38;;
21721;SDS011;11023;48.274;7.794;2022-07-23T08:50:22;7.43;;;6.47;;
21721;SDS011;11023;48.274;7.794;2022-07-23T08:52:49;6.97;;;6.28;;
21721;SDS011;11023;48.274;7.794;2022-07-23T08:55:16;6.80;;;6.20;;
21721;SDS011;11023;48.274;7.794;2022-07-23T08:57:43;6.25;;;5.63;;
21721;SDS011;11023;48.274;7.794;2022-07-23T09:00:09;8.82;;;6.13;;
21721;SDS011;11023;48.274;7.794;2022-07-23T09:02:38;6.55;;;5.85;;
21721;SDS011;11023;48.274;7.794;2022-07-23T09:05:07;7.00;;;6.30;;
21721;SDS011;11023;48.274;7.794;2022-07-23T09:07:35;6.88;;;6.00;;
21721;SDS011;11023;48.274;7.794;2022-07-23T09:10:05;8.27;;;6.30;;
21721;SDS011;11023;48.274;7.794;2022-07-23T09:12:32;7.32;;;6.25;;
21721;SDS011;11023;48.274;7.794;2022-07-23T09:15:02;6.88;;;6.20;;
21721;SDS011;11023;48.274;7.794;2022-07-23T09:17:37;7.30;;;6.20;;
21721;SDS011;11023;48.274;7.794;2022-07-23T09:20:11;7.75;;;6.22;;
21721;SDS011;11023;48.274;7.794;2022-07-23T09:22:39;7.65;;;6.40;;
21721;SDS011;11023;48.274;7.794;2022-07-23T09:25:17;8.70;;;5.93;;
21721;SDS011;11023;48.274;7.794;2022-07-23T09:30:21;6.88;;;6.13;;
21721;SDS011;11023;48.274;7.794;2022-07-23T09:35:46;6.70;;;6.00;;
21721;SDS011;11023;48.274;7.794;2022-07-23T09:38:17;8.48;;;6.60;;
21721;SDS011;11023;48.274;7.794;2022-07-23T09:40:44;7.22;;;6.53;;
21721;SDS011;11023;48.274;7.794;2022-07-23T09:43:10;8.32;;;6.60;;
21721;SDS011;11023;48.274;7.794;2022-07-23T09:45:37;7.60;;;6.68;;
21721;SDS011;11023;48.274;7.794;2022-07-23T09:48:11;7.85;;;7.03;;
21721;SDS011;11023;48.274;7.794;2022-07-23T09:50:38;8.90;;;7.15;;
21721;SDS011;11023;48.274;7.794;2022-07-23T09:53:05;9.07;;;6.90;;
21721;SDS011;11023;48.274;7.794;2022-07-23T09:55:32;7.65;;;6.85;;
21721;SDS011;11023;48.274;7.794;2022-07-23T09:58:02;8.05;;;7.10;;
21721;SDS011;11023;48.274;7.794;2022-07-23T10:00:28;8.68;;;6.90;;
21721;SDS011;11023;48.274;7.794;2022-07-23T10:02:55;8.40;;;7.47;;
21721;SDS011;11023;48.274;7.794;2022-07-23T10:05:22;6.80;;;6.20;;
21721;SDS011;11023;48.274;7.794;2022-07-23T10:07:49;7.78;;;6.90;;
21721;SDS011;11023;48.274;7.794;2022-07-23T10:10:16;6.95;;;6.25;;
21721;SDS011;11023;48.274;7.794;2022-07-23T10:12:43;7.57;;;6.75;;
21721;SDS011;11023;48.274;7.794;2022-07-23T10:15:09;7.70;;;7.00;;
21721;SDS011;11023;48.274;7.794;2022-07-23T10:17:36;8.38;;;6.95;;
21721;SDS011;11023;48.274;7.794;2022-07-23T10:20:02;12.50;;;6.80;;
21721;SDS011;11023;48.274;7.794;2022-07-23T10:22:30;7.43;;;6.50;;
21721;SDS011;11023;48.274;7.794;2022-07-23T10:33:55;7.35;;;6.65;;
21721;SDS011;11023;48.274;7.794;2022-07-23T10:36:28;8.48;;;6.55;;
21721;SDS011;11023;48.274;7.794;2022-07-23T10:39:08;6.95;;;6.10;;
21721;SDS011;11023;48.274;7.794;2022-07-23T10:41:40;7.82;;;6.30;;
21721;SDS011;11023;48.274;7.794;2022-07-23T10:49:41;7.85;;;7.05;;
21721;SDS011;11023;48.274;7.794;2022-07-23T10:52:17;9.10;;;6.97;;
21721;SDS011;11023;48.274;7.794;2022-07-23T10:57:27;8.80;;;7.00;;
21721;SDS011;11023;48.274;7.794;2022-07-23T11:02:32;9.93;;;6.88;;
21721;SDS011;11023;48.274;7.794;2022-07-23T11:05:03;8.07;;;6.70;;
21721;SDS011;11023;48.274;7.794;2022-07-23T11:07:37;7.82;;;6.80;;
21721;SDS011;11023;48.274;7.794;2022-07-23T11:24:08;7.82;;;7.13;;
21721;SDS011;11023;48.274;7.794;2022-07-23T11:26:47;8.10;;;7.13;;
21721;SDS011;11023;48.274;7.794;2022-07-23T11:32:18;9.30;;;7.22;;
21721;SDS011;11023;48.274;7.794;2022-07-23T11:34:45;8.05;;;7.10;;
21721;SDS011;11023;48.274;7.794;2022-07-23T11:37:25;8.15;;;7.35;;
21721;SDS011;11023;48.274;7.794;2022-07-23T11:39:54;8.00;;;7.20;;
21721;SDS011;11023;48.274;7.794;2022-07-23T11:42:20;9.98;;;7.75;;
21721;SDS011;11023;48.274;7.794;2022-07-23T11:44:46;8.55;;;7.60;;
21721;SDS011;11023;48.274;7.794;2022-07-23T11:47:13;9.60;;;7.28;;
21721;SDS011;11023;48.274;7.794;2022-07-23T11:49:39;8.18;;;7.38;;
21721;SDS011;11023;48.274;7.794;2022-07-23T11:52:17;9.52;;;7.40;;
21721;SDS011;11023;48.274;7.794;2022-07-23T11:54:51;11.63;;;7.10;;
21721;SDS011;11023;48.274;7.794;2022-07-23T11:57:19;7.90;;;7.10;;
21721;SDS011;11023;48.274;7.794;2022-07-23T11:59:51;8.40;;;7.32;;
21721;SDS011;11023;48.274;7.794;2022-07-23T12:02:19;7.85;;;6.82;;
21721;SDS011;11023;48.274;7.794;2022-07-23T12:04:47;8.32;;;7.38;;
21721;SDS011;11023;48.274;7.794;2022-07-23T12:10:16;8.43;;;6.95;;
21721;SDS011;11023;48.274;7.794;2022-07-23T12:13:20;7.53;;;6.80;;
21721;SDS011;11023;48.274;7.794;2022-07-23T12:15:47;8.43;;;7.55;;
21721;SDS011;11023;48.274;7.794;2022-07-23T12:18:19;8.23;;;7.32;;
21721;SDS011;11023;48.274;7.794;2022-07-23T12:20:49;9.20;;;7.30;;
21721;SDS011;11023;48.274;7.794;2022-07-23T12:23:17;10.23;;;7.68;;
21721;SDS011;11023;48.274;7.794;2022-07-23T12:25:45;9.07;;;7.22;;
21721;SDS011;11023;48.274;7.794;2022-07-23T12:28:13;7.65;;;6.95;;
21721;SDS011;11023;48.274;7.794;2022-07-23T12:30:44;7.72;;;6.78;;
21721;SDS011;11023;48.274;7.794;2022-07-23T12:33:18;11.65;;;6.90;;
21721;SDS011;11023;48.274;7.794;2022-07-23T12:35:46;8.25;;;7.20;;
21721;SDS011;11023;48.274;7.794;2022-07-23T12:38:17;7.70;;;6.60;;
21721;SDS011;11023;48.274;7.794;2022-07-23T12:43:20;7.75;;;7.00;;
21721;SDS011;11023;48.274;7.794;2022-07-23T12:45:49;8.48;;;7.15;;
21721;SDS011;11023;48.274;7.794;2022-07-23T12:48:32;7.55;;;6.88;;
21721;SDS011;11023;48.274;7.794;2022-07-23T12:51:05;7.75;;;6.93;;
21721;SDS011;11023;48.274;7.794;2022-07-23T12:53:41;7.78;;;7.00;;
21721;SDS011;11023;48.274;7.794;2022-07-23T12:56:13;7.63;;;6.85;;
21721;SDS011;11023;48.274;7.794;2022-07-23T13:09:03;7.55;;;6.80;;
21721;SDS011;11023;48.274;7.794;2022-07-23T13:11:31;8.20;;;6.70;;
21721;SDS011;11023;48.274;7.794;2022-07-23T13:13:57;7.72;;;7.00;;
21721;SDS011;11023;48.274;7.794;2022-07-23T13:16:23;7.85;;;7.05;;
21721;SDS011;11023;48.274;7.794;2022-07-23T13:18:49;7.78;;;7.05;;
21721;SDS011;11023;48.274;7.794;2022-07-23T13:21:14;7.63;;;6.82;;
21721;SDS011;11023;48.274;7.794;2022-07-23T13:23:41;7.63;;;6.68;;
21721;SDS011;11023;48.274;7.794;2022-07-23T13:26:07;8.50;;;6.75;;
21721;SDS011;11023;48.274;7.794;2022-07-23T13:28:32;12.15;;;7.00;;
21721;SDS011;11023;48.274;7.794;2022-07-23T13:30:58;7.18;;;6.47;;
21721;SDS011;11023;48.274;7.794;2022-07-23T13:33:24;7.75;;;6.70;;
21721;SDS011;11023;48.274;7.794;2022-07-23T13:35:51;7.90;;;6.78;;
21721;SDS011;11023;48.274;7.794;2022-07-23T13:38:18;7.30;;;6.68;;
21721;SDS011;11023;48.274;7.794;2022-07-23T13:40:46;7.80;;;7.05;;
21721;SDS011;11023;48.274;7.794;2022-07-23T13:43:15;7.43;;;6.70;;
21721;SDS011;11023;48.274;7.794;2022-07-23T13:45:43;8.20;;;7.05;;
21721;SDS011;11023;48.274;7.794;2022-07-23T13:48:09;7.18;;;6.57;;
21721;SDS011;11023;48.274;7.794;2022-07-23T13:50:36;8.30;;;6.88;;
21721;SDS011;11023;48.274;7.794;2022-07-23T13:53:03;7.72;;;7.03;;
21721;SDS011;11023;48.274;7.794;2022-07-23T13:55:30;8.02;;;7.18;;
21721;SDS011;11023;48.274;7.794;2022-07-23T13:57:57;8.57;;;7.32;;
21721;SDS011;11023;48.274;7.794;2022-07-23T14:00:24;7.65;;;6.90;;
21721;SDS011;11023;48.274;7.794;2022-07-23T14:02:50;7.68;;;6.88;;
21721;SDS011;11023;48.274;7.794;2022-07-23T14:05:15;12.82;;;7.30;;
21721;SDS011;11023;48.274;7.794;2022-07-23T14:07:41;7.15;;;6.55;;
21721;SDS011;11023;48.274;7.794;2022-07-23T14:10:09;7.63;;;6.90;;
21721;SDS011;11023;48.274;7.794;2022-07-23T14:12:36;7.90;;;6.63;;
21721;SDS011;11023;48.274;7.794;2022-07-23T14:15:02;10.20;;;6.78;;
21721;SDS011;11023;48.274;7.794;2022-07-23T14:17:29;8.07;;;6.97;;
21721;SDS011;11023;48.274;7.794;2022-07-23T14:19:56;7.35;;;6.65;;
21721;SDS011;11023;48.274;7.794;2022-07-23T14:22:22;8.30;;;6.90;;
21721;SDS011;11023;48.274;7.794;2022-07-23T14:24:48;7.38;;;6.72;;
21721;SDS011;11023;48.274;7.794;2022-07-23T14:27:14;10.05;;;6.47;;
21721;SDS011;11023;48.274;7.794;2022-07-23T14:29:40;8.18;;;7.05;;
21721;SDS011;11023;48.274;7.794;2022-07-23T14:32:06;8.52;;;6.90;;
21721;SDS011;11023;48.274;7.794;2022-07-23T14:34:32;7.93;;;6.38;;
21721;SDS011;11023;48.274;7.794;2022-07-23T14:36:58;8.02;;;6.68;;
21721;SDS011;11023;48.274;7.794;2022-07-23T14:39:24;9.23;;;6.70;;
21721;SDS011;11023;48.274;7.794;2022-07-23T14:41:50;7.07;;;6.30;;
21721;SDS011;11023;48.274;7.794;2022-07-23T14:44:16;9.90;;;6.75;;
21721;SDS011;11023;48.274;7.794;2022-07-23T14:46:42;9.15;;;7.30;;
21721;SDS011;11023;48.274;7.794;2022-07-23T14:49:08;7.05;;;6.43;;
21721;SDS011;11023;48.274;7.794;2022-07-23T14:51:33;7.88;;;6.90;;
21721;SDS011;11023;48.274;7.794;2022-07-23T14:53:59;7.55;;;6.70;;
21721;SDS011;11023;48.274;7.794;2022-07-23T14:56:25;8.48;;;6.82;;
21721;SDS011;11023;48.274;7.794;2022-07-23T14:58:50;7.28;;;6.57;;
21721;SDS011;11023;48.274;7.794;2022-07-23T15:01:16;8.70;;;6.60;;
21721;SDS011;11023;48.274;7.794;2022-07-23T15:03:42;8.27;;;7.00;;
21721;SDS011;11023;48.274;7.794;2022-07-23T15:06:07;8.05;;;7.25;;
21721;SDS011;11023;48.274;7.794;2022-07-23T15:08:33;7.60;;;6.90;;
21721;SDS011;11023;48.274;7.794;2022-07-23T15:10:59;9.25;;;6.57;;
21721;SDS011;11023;48.274;7.794;2022-07-23T15:13:25;10.65;;;7.15;;
21721;SDS011;11023;48.274;7.794;2022-07-23T15:15:50;8.57;;;6.78;;
21721;SDS011;11023;48.274;7.794;2022-07-23T15:18:16;7.50;;;6.80;;
21721;SDS011;11023;48.274;7.794;2022-07-23T15:20:42;7.47;;;6.78;;
21721;SDS011;11023;48.274;7.794;2022-07-23T15:23:07;7.78;;;6.97;;
21721;SDS011;11023;48.274;7.794;2022-07-23T15:25:33;11.25;;;7.20;;
21721;SDS011;11023;48.274;7.794;2022-07-23T15:28:00;7.35;;;6.38;;
21721;SDS011;11023;48.274;7.794;2022-07-23T15:30:26;7.78;;;6.97;;
21721;SDS011;11023;48.274;7.794;2022-07-23T15:32:52;7.50;;;6.80;;
21721;SDS011;11023;48.274;7.794;2022-07-23T15:35:18;7.68;;;6.80;;
21721;SDS011;11023;48.274;7.794;2022-07-23T15:37:44;7.22;;;6.53;;
21721;SDS011;11023;48.274;7.794;2022-07-23T15:40:10;7.63;;;6.90;;